sensor_id;sensor_type;location;lat;lon;timestamp;temperature;humidity
1415;DHT22;702;49.466;11.086;2022-10-16T00:01:31;15.80;98.50
1415;DHT22;702;49.466;11.086;2022-10-16T00:04:01;15.80;98.70
1415;DHT22;702;49.466;11.086;2022-10-16T00:06:30;15.80;98.50
1415;DHT22;702;49.466;11.086;2022-10-16T00:08:58;15.70;99.60
1415;DHT22;702;49.466;11.086;2022-10-16T00:11:27;15.70;99.40
1415;DHT22;702;49.466;11.086;2022-10-16T00:13:57;15.60;99.90
1415;DHT22;702;49.466;11.086;2022-10-16T00:16:26;15.70;99.40
1415;DHT22;702;49.466;11.086;2022-10-16T00:18:54;15.70;99.90
1415;DHT22;702;49.466;11.086;2022-10-16T00:21:25;15.70;99.90
1415;DHT22;702;49.466;11.086;2022-10-16T00:23:55;15.70;99.60
1415;DHT22;702;49.466;11.086;2022-10-16T00:26:26;15.70;99.00
1415;DHT22;702;49.466;11.086;2022-10-16T00:28:54;15.70;99.30
1415;DHT22;702;49.466;11.086;2022-10-16T00:31:22;15.70;99.60
1415;DHT22;702;49.466;11.086;2022-10-16T00:33:51;15.70;99.30
1415;DHT22;702;49.466;11.086;2022-10-16T00:36:20;15.70;99.30
1415;DHT22;702;49.466;11.086;2022-10-16T00:38:52;15.60;99.30
1415;DHT22;702;49.466;11.086;2022-10-16T00:41:23;15.60;99.90
1415;DHT22;702;49.466;11.086;2022-10-16T00:43:53;15.60;99.90
1415;DHT22;702;49.466;11.086;2022-10-16T00:46:24;15.70;99.40
1415;DHT22;702;49.466;11.086;2022-10-16T00:48:56;15.70;99.60
1415;DHT22;702;49.466;11.086;2022-10-16T00:51:30;15.70;99.90
1415;DHT22;702;49.466;11.086;2022-10-16T00:54:08;15.70;99.90
1415;DHT22;702;49.466;11.086;2022-10-16T00:56:37;15.70;99.90
1415;DHT22;702;49.466;11.086;2022-10-16T00:59:07;15.70;99.90
1415;DHT22;702;49.466;11.086;2022-10-16T01:01:39;15.70;99.90
1415;DHT22;702;49.466;11.086;2022-10-16T01:04:06;15.60;99.90
1415;DHT22;702;49.466;11.086;2022-10-16T01:06:40;15.60;99.90
1415;DHT22;702;49.466;11.086;2022-10-16T01:09:17;15.60;99.90
1415;DHT22;702;49.466;11.086;2022-10-16T01:11:57;15.60;99.90
1415;DHT22;702;49.466;11.086;2022-10-16T01:14:39;15.50;99.90
1415;DHT22;702;49.466;11.086;2022-10-16T01:17:12;15.50;99.90
1415;DHT22;702;49.466;11.086;2022-10-16T01:20:00;15.50;99.90
1415;DHT22;702;49.466;11.086;2022-10-16T01:22:39;15.50;99.90
1415;DHT22;702;49.466;11.086;2022-10-16T01:25:17;15.50;99.90
1415;DHT22;702;49.466;11.086;2022-10-16T01:27:50;15.50;99.90
1415;DHT22;702;49.466;11.086;2022-10-16T01:30:21;15.50;99.90
1415;DHT22;702;49.466;11.086;2022-10-16T01:32:55;15.50;99.90
1415;DHT22;702;49.466;11.086;2022-10-16T01:35:27;15.50;99.90
1415;DHT22;702;49.466;11.086;2022-10-16T01:38:06;15.40;99.90
1415;DHT22;702;49.466;11.086;2022-10-16T01:40:39;15.40;99.90
1415;DHT22;702;49.466;11.086;2022-10-16T01:43:13;15.40;99.90
1415;DHT22;702;49.466;11.086;2022-10-16T01:45:44;15.40;99.90
1415;DHT22;702;49.466;11.086;2022-10-16T01:48:16;15.40;99.90
1415;DHT22;702;49.466;11.086;2022-10-16T01:50:55;15.40;99.90
1415;DHT22;702;49.466;11.086;2022-10-16T01:53:27;15.40;99.90
1415;DHT22;702;49.466;11.086;2022-10-16T01:55:55;15.40;99.90
1415;DHT22;702;49.466;11.086;2022-10-16T01:58:27;15.40;99.90
1415;DHT22;702;49.466;11.086;2022-10-16T02:00:56;15.60;99.90
1415;DHT22;702;49.466;11.086;2022-10-16T02:03:24;15.50;99.90
1415;DHT22;702;49.466;11.086;2022-10-16T02:05:54;15.60;99.90
1415;DHT22;702;49.466;11.086;2022-10-16T02:08:24;15.60;99.90
1415;DHT22;702;49.466;11.086;2022-10-16T02:10:54;15.70;99.90
1415;DHT22;702;49.466;11.086;2022-10-16T02:13:26;15.60;99.90
1415;DHT22;702;49.466;11.086;2022-10-16T02:15:57;15.60;99.90
1415;DHT22;702;49.466;11.086;2022-10-16T02:18:25;15.60;99.90
1415;DHT22;702;49.466;11.086;2022-10-16T02:20:58;15.60;99.90
1415;DHT22;702;49.466;11.086;2022-10-16T02:23:32;15.70;99.90
1415;DHT22;702;49.466;11.086;2022-10-16T02:26:05;15.60;99.90
1415;DHT22;702;49.466;11.086;2022-10-16T02:28:41;15.70;99.80
1415;DHT22;702;49.466;11.086;2022-10-16T02:31:16;15.70;99.90
1415;DHT22;702;49.466;11.086;2022-10-16T02:33:47;15.60;99.80
1415;DHT22;702;49.466;11.086;2022-10-16T02:36:15;15.60;99.90
1415;DHT22;702;49.466;11.086;2022-10-16T02:38:43;15.60;99.90
1415;DHT22;702;49.466;11.086;2022-10-16T02:41:12;15.50;99.90
1415;DHT22;702;49.466;11.086;2022-10-16T02:43:44;15.60;99.90
1415;DHT22;702;49.466;11.086;2022-10-16T02:46:11;15.60;99.90
1415;DHT22;702;49.466;11.086;2022-10-16T02:48:39;15.50;99.90
1415;DHT22;702;49.466;11.086;2022-10-16T02:51:12;15.60;99.90
1415;DHT22;702;49.466;11.086;2022-10-16T02:53:41;15.60;99.90
1415;DHT22;702;49.466;11.086;2022-10-16T02:56:11;15.50;99.90
1415;DHT22;702;49.466;11.086;2022-10-16T02:58:44;15.60;99.90
1415;DHT22;702;49.466;11.086;2022-10-16T03:01:12;15.50;99.90
1415;DHT22;702;49.466;11.086;2022-10-16T03:03:44;15.50;99.90
1415;DHT22;702;49.466;11.086;2022-10-16T03:06:12;15.50;99.90
1415;DHT22;702;49.466;11.086;2022-10-16T03:08:40;15.40;99.90
1415;DHT22;702;49.466;11.086;2022-10-16T03:11:10;15.40;99.90
1415;DHT22;702;49.466;11.086;2022-10-16T03:13:38;15.40;99.90
1415;DHT22;702;49.466;11.086;2022-10-16T03:16:09;15.40;99.90
1415;DHT22;702;49.466;11.086;2022-10-16T03:18:38;15.40;99.90
1415;DHT22;702;49.466;11.086;2022-10-16T03:21:05;15.30;99.90
1415;DHT22;702;49.466;11.086;2022-10-16T03:23:33;15.30;99.90
1415;DHT22;702;49.466;11.086;2022-10-16T03:26:00;15.30;99.90
1415;DHT22;702;49.466;11.086;2022-10-16T03:28:28;15.20;99.90
1415;DHT22;702;49.466;11.086;2022-10-16T03:30:55;15.20;99.90
1415;DHT22;702;49.466;11.086;2022-10-16T03:33:24;15.20;99.90
1415;DHT22;702;49.466;11.086;2022-10-16T03:35:52;15.20;99.90
1415;DHT22;702;49.466;11.086;2022-10-16T03:38:21;15.20;99.90
1415;DHT22;702;49.466;11.086;2022-10-16T03:40:49;15.20;99.90
1415;DHT22;702;49.466;11.086;2022-10-16T03:43:16;15.30;99.90
1415;DHT22;702;49.466;11.086;2022-10-16T03:45:43;15.20;99.90
1415;DHT22;702;49.466;11.086;2022-10-16T03:48:11;15.20;99.90
1415;DHT22;702;49.466;11.086;2022-10-16T03:50:41;15.20;99.90
1415;DHT22;702;49.466;11.086;2022-10-16T03:53:08;15.10;99.90
1415;DHT22;702;49.466;11.086;2022-10-16T03:55:36;15.10;99.90
1415;DHT22;702;49.466;11.086;2022-10-16T03:58:03;15.10;99.90
1415;DHT22;702;49.466;11.086;2022-10-16T04:00:31;15.10;99.90
1415;DHT22;702;49.466;11.086;2022-10-16T04:03:00;15.20;99.90
1415;DHT22;702;49.466;11.086;2022-10-16T04:05:29;15.10;99.90
1415;DHT22;702;49.466;11.086;2022-10-16T04:07:58;15.20;99.90
1415;DHT22;702;49.466;11.086;2022-10-16T04:10:26;15.20;99.90
1415;DHT22;702;49.466;11.086;2022-10-16T04:12:54;15.10;99.90
1415;DHT22;702;49.466;11.086;2022-10-16T04:15:21;15.10;99.90
1415;DHT22;702;49.466;11.086;2022-10-16T04:17:48;15.10;99.90
1415;DHT22;702;49.466;11.086;2022-10-16T04:20:16;15.10;99.90
1415;DHT22;702;49.466;11.086;2022-10-16T04:22:44;15.10;99.90
1415;DHT22;702;49.466;11.086;2022-10-16T04:25:14;15.20;99.90
1415;DHT22;702;49.466;11.086;2022-10-16T04:27:41;15.20;99.90
1415;DHT22;702;49.466;11.086;2022-10-16T04:30:10;15.20;99.90
1415;DHT22;702;49.466;11.086;2022-10-16T04:32:41;15.20;99.90
1415;DHT22;702;49.466;11.086;2022-10-16T04:35:09;15.10;99.90
1415;DHT22;702;49.466;11.086;2022-10-16T04:37:37;15.10;99.90
1415;DHT22;702;49.466;11.086;2022-10-16T04:40:07;15.10;99.90
1415;DHT22;702;49.466;11.086;2022-10-16T04:42:36;15.10;99.90
1415;DHT22;702;49.466;11.086;2022-10-16T04:45:05;15.10;99.90
1415;DHT22;702;49.466;11.086;2022-10-16T04:47:34;15.10;99.90
1415;DHT22;702;49.466;11.086;2022-10-16T04:50:03;15.10;99.90
1415;DHT22;702;49.466;11.086;2022-10-16T04:52:31;15.10;99.90
1415;DHT22;702;49.466;11.086;2022-10-16T04:54:59;15.10;99.90
1415;DHT22;702;49.466;11.086;2022-10-16T04:57:28;15.10;99.90
1415;DHT22;702;49.466;11.086;2022-10-16T05:00:00;15.20;99.90
1415;DHT22;702;49.466;11.086;2022-10-16T05:02:29;15.20;99.90
1415;DHT22;702;49.466;11.086;2022-10-16T05:04:57;15.20;99.90
1415;DHT22;702;49.466;11.086;2022-10-16T05:07:26;15.20;99.90
1415;DHT22;702;49.466;11.086;2022-10-16T05:09:54;15.20;99.90
1415;DHT22;702;49.466;11.086;2022-10-16T05:12:21;15.10;99.90
1415;DHT22;702;49.466;11.086;2022-10-16T05:14:48;15.10;99.90
1415;DHT22;702;49.466;11.086;2022-10-16T05:17:17;15.00;99.90
1415;DHT22;702;49.466;11.086;2022-10-16T05:19:45;15.00;99.90
1415;DHT22;702;49.466;11.086;2022-10-16T05:22:12;15.10;99.90
1415;DHT22;702;49.466;11.086;2022-10-16T05:24:42;15.00;99.90
1415;DHT22;702;49.466;11.086;2022-10-16T05:27:11;15.00;99.90
1415;DHT22;702;49.466;11.086;2022-10-16T05:29:45;14.90;99.90
1415;DHT22;702;49.466;11.086;2022-10-16T05:32:17;14.90;99.90
1415;DHT22;702;49.466;11.086;2022-10-16T05:34:45;14.90;99.90
1415;DHT22;702;49.466;11.086;2022-10-16T05:37:13;14.90;99.90
1415;DHT22;702;49.466;11.086;2022-10-16T05:39:41;14.90;99.90
1415;DHT22;702;49.466;11.086;2022-10-16T05:42:09;14.90;99.90
1415;DHT22;702;49.466;11.086;2022-10-16T05:44:38;14.90;99.90
1415;DHT22;702;49.466;11.086;2022-10-16T05:47:07;15.00;99.90
1415;DHT22;702;49.466;11.086;2022-10-16T05:49:37;15.00;99.90
1415;DHT22;702;49.466;11.086;2022-10-16T05:52:06;15.00;99.90
1415;DHT22;702;49.466;11.086;2022-10-16T05:54:35;15.10;99.90
1415;DHT22;702;49.466;11.086;2022-10-16T05:57:05;15.10;99.90
1415;DHT22;702;49.466;11.086;2022-10-16T05:59:35;15.20;99.90
1415;DHT22;702;49.466;11.086;2022-10-16T06:02:05;15.20;99.90
1415;DHT22;702;49.466;11.086;2022-10-16T06:04:33;15.20;99.90
1415;DHT22;702;49.466;11.086;2022-10-16T06:07:03;15.30;99.90
1415;DHT22;702;49.466;11.086;2022-10-16T06:09:32;15.30;99.90
1415;DHT22;702;49.466;11.086;2022-10-16T06:12:01;15.30;99.90
1415;DHT22;702;49.466;11.086;2022-10-16T06:14:28;15.40;99.90
1415;DHT22;702;49.466;11.086;2022-10-16T06:16:55;15.40;99.90
1415;DHT22;702;49.466;11.086;2022-10-16T06:19:23;15.50;99.90
1415;DHT22;702;49.466;11.086;2022-10-16T06:21:50;15.50;99.90
1415;DHT22;702;49.466;11.086;2022-10-16T06:24:19;15.50;99.90
1415;DHT22;702;49.466;11.086;2022-10-16T06:26:46;15.60;99.90
1415;DHT22;702;49.466;11.086;2022-10-16T06:29:13;15.60;99.90
1415;DHT22;702;49.466;11.086;2022-10-16T06:31:40;15.70;99.90
1415;DHT22;702;49.466;11.086;2022-10-16T06:34:09;15.80;99.50
1415;DHT22;702;49.466;11.086;2022-10-16T06:36:37;15.70;99.70
1415;DHT22;702;49.466;11.086;2022-10-16T06:39:05;15.80;99.90
1415;DHT22;702;49.466;11.086;2022-10-16T06:41:34;15.80;99.90
1415;DHT22;702;49.466;11.086;2022-10-16T06:44:04;15.80;99.20
1415;DHT22;702;49.466;11.086;2022-10-16T06:46:34;16.00;98.10
1415;DHT22;702;49.466;11.086;2022-10-16T06:49:03;16.00;97.60
1415;DHT22;702;49.466;11.086;2022-10-16T06:51:30;16.10;96.70
1415;DHT22;702;49.466;11.086;2022-10-16T06:54:00;16.20;96.70
1415;DHT22;702;49.466;11.086;2022-10-16T06:56:28;16.20;96.00
1415;DHT22;702;49.466;11.086;2022-10-16T06:58:58;16.20;96.00
1415;DHT22;702;49.466;11.086;2022-10-16T07:01:26;16.20;96.50
1415;DHT22;702;49.466;11.086;2022-10-16T07:03:53;16.20;96.40
1415;DHT22;702;49.466;11.086;2022-10-16T07:06:23;16.20;96.50
1415;DHT22;702;49.466;11.086;2022-10-16T07:08:51;16.30;96.50
1415;DHT22;702;49.466;11.086;2022-10-16T07:11:21;16.30;95.80
1415;DHT22;702;49.466;11.086;2022-10-16T07:13:50;16.30;95.70
1415;DHT22;702;49.466;11.086;2022-10-16T07:16:20;16.40;95.30
1415;DHT22;702;49.466;11.086;2022-10-16T07:18:48;16.50;95.00
1415;DHT22;702;49.466;11.086;2022-10-16T07:21:19;16.40;95.20
1415;DHT22;702;49.466;11.086;2022-10-16T07:23:50;16.50;94.80
1415;DHT22;702;49.466;11.086;2022-10-16T07:26:17;16.50;94.60
1415;DHT22;702;49.466;11.086;2022-10-16T07:28:45;16.50;95.10
1415;DHT22;702;49.466;11.086;2022-10-16T07:31:14;16.50;94.90
1415;DHT22;702;49.466;11.086;2022-10-16T07:33:44;16.50;94.70
1415;DHT22;702;49.466;11.086;2022-10-16T07:36:14;16.60;94.70
1415;DHT22;702;49.466;11.086;2022-10-16T07:38:42;16.60;94.30
1415;DHT22;702;49.466;11.086;2022-10-16T07:41:12;16.70;94.40
1415;DHT22;702;49.466;11.086;2022-10-16T07:43:40;16.80;94.00
1415;DHT22;702;49.466;11.086;2022-10-16T07:46:12;16.80;93.70
1415;DHT22;702;49.466;11.086;2022-10-16T07:48:40;16.70;93.80
1415;DHT22;702;49.466;11.086;2022-10-16T07:51:13;16.70;94.10
1415;DHT22;702;49.466;11.086;2022-10-16T07:53:41;16.80;94.20
1415;DHT22;702;49.466;11.086;2022-10-16T07:56:08;17.00;93.40
1415;DHT22;702;49.466;11.086;2022-10-16T07:58:36;17.10;93.10
1415;DHT22;702;49.466;11.086;2022-10-16T08:01:05;17.20;92.70
1415;DHT22;702;49.466;11.086;2022-10-16T08:03:35;17.20;92.70
1415;DHT22;702;49.466;11.086;2022-10-16T08:06:03;17.40;92.60
1415;DHT22;702;49.466;11.086;2022-10-16T08:08:32;17.60;92.20
1415;DHT22;702;49.466;11.086;2022-10-16T08:10:59;17.50;91.90
1415;DHT22;702;49.466;11.086;2022-10-16T08:13:29;17.60;91.80
1415;DHT22;702;49.466;11.086;2022-10-16T08:15:56;17.60;91.80
1415;DHT22;702;49.466;11.086;2022-10-16T08:18:24;17.60;91.60
1415;DHT22;702;49.466;11.086;2022-10-16T08:20:55;17.70;91.60
1415;DHT22;702;49.466;11.086;2022-10-16T08:23:23;17.70;91.30
1415;DHT22;702;49.466;11.086;2022-10-16T08:25:53;17.60;91.40
1415;DHT22;702;49.466;11.086;2022-10-16T08:28:21;17.50;91.30
1415;DHT22;702;49.466;11.086;2022-10-16T08:30:49;17.50;91.20
1415;DHT22;702;49.466;11.086;2022-10-16T08:33:19;17.60;91.10
1415;DHT22;702;49.466;11.086;2022-10-16T08:35:51;17.80;91.10
1415;DHT22;702;49.466;11.086;2022-10-16T08:38:19;17.90;90.90
1415;DHT22;702;49.466;11.086;2022-10-16T08:40:47;18.00;90.80
1415;DHT22;702;49.466;11.086;2022-10-16T08:43:38;18.10;90.80
1415;DHT22;702;49.466;11.086;2022-10-16T08:46:22;18.00;90.70
1415;DHT22;702;49.466;11.086;2022-10-16T08:48:58;17.90;90.70
1415;DHT22;702;49.466;11.086;2022-10-16T08:51:28;18.00;90.70
1415;DHT22;702;49.466;11.086;2022-10-16T08:53:58;18.10;90.70
1415;DHT22;702;49.466;11.086;2022-10-16T08:56:28;18.10;90.60
1415;DHT22;702;49.466;11.086;2022-10-16T08:58:58;18.30;90.40
1415;DHT22;702;49.466;11.086;2022-10-16T09:01:35;18.40;90.30
1415;DHT22;702;49.466;11.086;2022-10-16T09:04:40;18.50;90.00
1415;DHT22;702;49.466;11.086;2022-10-16T09:07:21;18.80;89.50
1415;DHT22;702;49.466;11.086;2022-10-16T09:10:05;18.90;89.30
1415;DHT22;702;49.466;11.086;2022-10-16T09:12:44;19.00;89.40
1415;DHT22;702;49.466;11.086;2022-10-16T09:15:23;19.10;88.80
1415;DHT22;702;49.466;11.086;2022-10-16T09:18:06;19.20;88.50
1415;DHT22;702;49.466;11.086;2022-10-16T09:20:45;19.30;88.20
1415;DHT22;702;49.466;11.086;2022-10-16T09:23:19;19.50;87.70
1415;DHT22;702;49.466;11.086;2022-10-16T09:25:49;19.60;88.00
1415;DHT22;702;49.466;11.086;2022-10-16T09:28:18;19.70;87.70
1415;DHT22;702;49.466;11.086;2022-10-16T09:30:47;19.90;87.70
1415;DHT22;702;49.466;11.086;2022-10-16T09:33:16;20.00;87.10
1415;DHT22;702;49.466;11.086;2022-10-16T09:35:46;20.00;86.70
1415;DHT22;702;49.466;11.086;2022-10-16T09:38:25;19.90;86.50
1415;DHT22;702;49.466;11.086;2022-10-16T09:40:54;19.70;86.00
1415;DHT22;702;49.466;11.086;2022-10-16T09:43:25;19.50;86.00
1415;DHT22;702;49.466;11.086;2022-10-16T09:45:59;19.40;86.20
1415;DHT22;702;49.466;11.086;2022-10-16T09:48:31;19.10;86.50
1415;DHT22;702;49.466;11.086;2022-10-16T09:51:13;18.90;86.80
1415;DHT22;702;49.466;11.086;2022-10-16T09:53:45;18.80;87.20
1415;DHT22;702;49.466;11.086;2022-10-16T09:56:22;18.80;87.10
1415;DHT22;702;49.466;11.086;2022-10-16T09:58:51;18.70;87.50
1415;DHT22;702;49.466;11.086;2022-10-16T10:01:22;18.90;87.60
1415;DHT22;702;49.466;11.086;2022-10-16T10:03:56;18.90;87.30
1415;DHT22;702;49.466;11.086;2022-10-16T10:06:30;19.00;87.30
1415;DHT22;702;49.466;11.086;2022-10-16T10:09:04;19.20;87.30
1415;DHT22;702;49.466;11.086;2022-10-16T10:11:38;19.30;86.90
1415;DHT22;702;49.466;11.086;2022-10-16T10:14:18;19.40;86.60
1415;DHT22;702;49.466;11.086;2022-10-16T10:16:49;19.40;86.20
1415;DHT22;702;49.466;11.086;2022-10-16T10:19:18;19.70;86.50
1415;DHT22;702;49.466;11.086;2022-10-16T10:21:47;20.00;86.00
1415;DHT22;702;49.466;11.086;2022-10-16T10:24:16;20.10;85.80
1415;DHT22;702;49.466;11.086;2022-10-16T10:26:51;20.40;85.50
1415;DHT22;702;49.466;11.086;2022-10-16T10:29:31;20.70;84.90
1415;DHT22;702;49.466;11.086;2022-10-16T10:32:17;20.60;84.60
1415;DHT22;702;49.466;11.086;2022-10-16T10:34:58;20.50;84.40
1415;DHT22;702;49.466;11.086;2022-10-16T10:37:50;20.30;84.80
1415;DHT22;702;49.466;11.086;2022-10-16T10:40:30;20.20;85.00
1415;DHT22;702;49.466;11.086;2022-10-16T10:43:13;20.40;85.00
1415;DHT22;702;49.466;11.086;2022-10-16T10:45:48;20.70;84.70
1415;DHT22;702;49.466;11.086;2022-10-16T10:48:39;21.10;84.30
1415;DHT22;702;49.466;11.086;2022-10-16T10:51:15;21.20;83.90
1415;DHT22;702;49.466;11.086;2022-10-16T10:53:53;21.40;83.40
1415;DHT22;702;49.466;11.086;2022-10-16T10:56:41;21.40;83.20
1415;DHT22;702;49.466;11.086;2022-10-16T11:02:28;21.30;83.10
1415;DHT22;702;49.466;11.086;2022-10-16T11:05:28;21.40;83.00
1415;DHT22;702;49.466;11.086;2022-10-16T11:08:02;21.50;83.10
1415;DHT22;702;49.466;11.086;2022-10-16T11:10:41;21.70;82.60
1415;DHT22;702;49.466;11.086;2022-10-16T11:13:20;21.70;82.40
1415;DHT22;702;49.466;11.086;2022-10-16T11:15:53;21.70;82.10
1415;DHT22;702;49.466;11.086;2022-10-16T11:18:29;21.80;82.30
1415;DHT22;702;49.466;11.086;2022-10-16T11:21:07;21.80;82.00
1415;DHT22;702;49.466;11.086;2022-10-16T11:23:41;21.50;82.20
1415;DHT22;702;49.466;11.086;2022-10-16T11:26:14;21.70;82.10
1415;DHT22;702;49.466;11.086;2022-10-16T11:28:45;21.90;82.00
1415;DHT22;702;49.466;11.086;2022-10-16T11:31:19;22.10;81.80
1415;DHT22;702;49.466;11.086;2022-10-16T11:33:54;22.20;81.40
1415;DHT22;702;49.466;11.086;2022-10-16T11:36:35;22.20;81.30
1415;DHT22;702;49.466;11.086;2022-10-16T11:39:14;22.00;80.80
1415;DHT22;702;49.466;11.086;2022-10-16T11:41:49;22.20;81.00
1415;DHT22;702;49.466;11.086;2022-10-16T11:44:34;22.50;80.50
1415;DHT22;702;49.466;11.086;2022-10-16T11:47:12;22.60;80.30
1415;DHT22;702;49.466;11.086;2022-10-16T11:49:58;22.60;80.40
1415;DHT22;702;49.466;11.086;2022-10-16T11:52:35;22.50;80.50
1415;DHT22;702;49.466;11.086;2022-10-16T11:55:14;22.60;79.90
1415;DHT22;702;49.466;11.086;2022-10-16T11:57:45;22.70;80.20
1415;DHT22;702;49.466;11.086;2022-10-16T12:00:20;22.70;80.10
1415;DHT22;702;49.466;11.086;2022-10-16T12:02:56;22.70;79.50
1415;DHT22;702;49.466;11.086;2022-10-16T12:05:34;22.70;79.40
1415;DHT22;702;49.466;11.086;2022-10-16T12:08:21;22.50;79.30
1415;DHT22;702;49.466;11.086;2022-10-16T12:10:48;22.20;79.90
1415;DHT22;702;49.466;11.086;2022-10-16T12:13:33;22.20;80.50
1415;DHT22;702;49.466;11.086;2022-10-16T12:16:06;22.00;80.60
1415;DHT22;702;49.466;11.086;2022-10-16T12:18:34;21.90;80.90
1415;DHT22;702;49.466;11.086;2022-10-16T12:21:03;21.80;80.90
1415;DHT22;702;49.466;11.086;2022-10-16T12:23:36;21.40;81.30
1415;DHT22;702;49.466;11.086;2022-10-16T12:26:04;21.30;81.60
1415;DHT22;702;49.466;11.086;2022-10-16T12:28:32;21.40;81.50
1415;DHT22;702;49.466;11.086;2022-10-16T12:31:02;21.50;81.60
1415;DHT22;702;49.466;11.086;2022-10-16T12:33:33;21.50;81.30
1415;DHT22;702;49.466;11.086;2022-10-16T12:36:03;21.50;81.40
1415;DHT22;702;49.466;11.086;2022-10-16T12:38:37;21.50;81.70
1415;DHT22;702;49.466;11.086;2022-10-16T12:41:12;21.70;81.40
1415;DHT22;702;49.466;11.086;2022-10-16T12:43:42;21.70;81.40
1415;DHT22;702;49.466;11.086;2022-10-16T12:46:26;21.60;81.10
1415;DHT22;702;49.466;11.086;2022-10-16T12:49:22;21.60;81.00
1415;DHT22;702;49.466;11.086;2022-10-16T12:51:57;21.60;81.30
1415;DHT22;702;49.466;11.086;2022-10-16T12:54:28;21.60;81.10
1415;DHT22;702;49.466;11.086;2022-10-16T12:57:12;21.70;80.80
1415;DHT22;702;49.466;11.086;2022-10-16T12:59:56;21.80;80.80
1415;DHT22;702;49.466;11.086;2022-10-16T13:02:45;22.00;80.60
1415;DHT22;702;49.466;11.086;2022-10-16T13:05:42;22.10;80.40
1415;DHT22;702;49.466;11.086;2022-10-16T13:08:30;22.40;80.20
1415;DHT22;702;49.466;11.086;2022-10-16T13:11:16;22.70;79.90
1415;DHT22;702;49.466;11.086;2022-10-16T13:14:10;22.80;79.60
1415;DHT22;702;49.466;11.086;2022-10-16T13:16:52;23.00;79.60
1415;DHT22;702;49.466;11.086;2022-10-16T13:19:29;22.90;79.40
1415;DHT22;702;49.466;11.086;2022-10-16T13:22:06;23.10;79.60
1415;DHT22;702;49.466;11.086;2022-10-16T13:24:49;23.30;79.20
1415;DHT22;702;49.466;11.086;2022-10-16T13:27:35;23.50;78.90
1415;DHT22;702;49.466;11.086;2022-10-16T13:30:13;23.70;78.30
1415;DHT22;702;49.466;11.086;2022-10-16T13:32:45;23.60;78.40
1415;DHT22;702;49.466;11.086;2022-10-16T13:35:28;23.50;78.40
1415;DHT22;702;49.466;11.086;2022-10-16T13:38:11;23.30;78.60
1415;DHT22;702;49.466;11.086;2022-10-16T13:40:52;23.30;78.50
1415;DHT22;702;49.466;11.086;2022-10-16T13:43:26;23.10;78.40
1415;DHT22;702;49.466;11.086;2022-10-16T13:45:58;22.90;78.60
1415;DHT22;702;49.466;11.086;2022-10-16T13:48:28;22.80;79.10
1415;DHT22;702;49.466;11.086;2022-10-16T13:51:00;22.80;78.50
1415;DHT22;702;49.466;11.086;2022-10-16T13:53:31;22.80;78.20
1415;DHT22;702;49.466;11.086;2022-10-16T13:55:58;22.80;76.80
1415;DHT22;702;49.466;11.086;2022-10-16T13:58:28;22.90;76.00
1415;DHT22;702;49.466;11.086;2022-10-16T14:00:57;23.00;76.00
1415;DHT22;702;49.466;11.086;2022-10-16T14:03:26;22.80;77.30
1415;DHT22;702;49.466;11.086;2022-10-16T14:05:56;22.60;78.20
1415;DHT22;702;49.466;11.086;2022-10-16T14:08:25;22.60;78.60
1415;DHT22;702;49.466;11.086;2022-10-16T14:10:57;22.60;78.70
1415;DHT22;702;49.466;11.086;2022-10-16T14:13:31;22.60;79.00
1415;DHT22;702;49.466;11.086;2022-10-16T14:16:06;22.70;79.00
1415;DHT22;702;49.466;11.086;2022-10-16T14:18:37;22.70;78.60
1415;DHT22;702;49.466;11.086;2022-10-16T14:21:07;22.60;78.10
1415;DHT22;702;49.466;11.086;2022-10-16T14:23:40;22.50;78.00
1415;DHT22;702;49.466;11.086;2022-10-16T14:26:18;22.40;77.90
1415;DHT22;702;49.466;11.086;2022-10-16T14:28:49;22.40;77.80
1415;DHT22;702;49.466;11.086;2022-10-16T14:31:31;22.20;78.50
1415;DHT22;702;49.466;11.086;2022-10-16T14:34:01;22.20;78.80
1415;DHT22;702;49.466;11.086;2022-10-16T14:36:29;22.20;78.90
1415;DHT22;702;49.466;11.086;2022-10-16T14:39:02;22.20;79.30
1415;DHT22;702;49.466;11.086;2022-10-16T14:41:32;22.00;79.40
1415;DHT22;702;49.466;11.086;2022-10-16T14:44:11;21.80;78.20
1415;DHT22;702;49.466;11.086;2022-10-16T14:46:41;21.70;78.30
1415;DHT22;702;49.466;11.086;2022-10-16T14:49:16;21.60;78.70
1415;DHT22;702;49.466;11.086;2022-10-16T14:51:46;21.60;79.20
1415;DHT22;702;49.466;11.086;2022-10-16T14:54:15;21.50;78.20
1415;DHT22;702;49.466;11.086;2022-10-16T14:56:47;21.50;78.70
1415;DHT22;702;49.466;11.086;2022-10-16T14:59:19;21.60;79.10
1415;DHT22;702;49.466;11.086;2022-10-16T15:01:50;21.60;78.80
1415;DHT22;702;49.466;11.086;2022-10-16T15:04:17;21.60;78.60
1415;DHT22;702;49.466;11.086;2022-10-16T15:06:44;21.60;78.20
1415;DHT22;702;49.466;11.086;2022-10-16T15:09:12;21.60;78.30
1415;DHT22;702;49.466;11.086;2022-10-16T15:11:41;21.60;78.50
1415;DHT22;702;49.466;11.086;2022-10-16T15:14:10;21.60;79.00
1415;DHT22;702;49.466;11.086;2022-10-16T15:16:40;21.60;79.20
1415;DHT22;702;49.466;11.086;2022-10-16T15:19:07;21.60;79.20
1415;DHT22;702;49.466;11.086;2022-10-16T15:21:34;21.60;79.60
1415;DHT22;702;49.466;11.086;2022-10-16T15:24:05;21.50;79.80
1415;DHT22;702;49.466;11.086;2022-10-16T15:26:35;21.40;79.70
1415;DHT22;702;49.466;11.086;2022-10-16T15:29:04;21.20;80.10
1415;DHT22;702;49.466;11.086;2022-10-16T15:31:32;21.10;80.20
1415;DHT22;702;49.466;11.086;2022-10-16T15:34:00;21.00;80.40
1415;DHT22;702;49.466;11.086;2022-10-16T15:36:31;21.00;80.50
1415;DHT22;702;49.466;11.086;2022-10-16T15:39:02;21.00;80.60
1415;DHT22;702;49.466;11.086;2022-10-16T15:41:30;20.90;80.70
1415;DHT22;702;49.466;11.086;2022-10-16T15:43:57;20.90;81.00
1415;DHT22;702;49.466;11.086;2022-10-16T15:46:25;20.90;81.10
1415;DHT22;702;49.466;11.086;2022-10-16T15:48:56;20.80;81.30
1415;DHT22;702;49.466;11.086;2022-10-16T15:51:26;20.70;81.50
1415;DHT22;702;49.466;11.086;2022-10-16T15:53:55;20.70;81.90
1415;DHT22;702;49.466;11.086;2022-10-16T15:56:23;20.60;81.70
1415;DHT22;702;49.466;11.086;2022-10-16T15:58:51;20.60;82.00
1415;DHT22;702;49.466;11.086;2022-10-16T16:01:19;20.50;82.20
1415;DHT22;702;49.466;11.086;2022-10-16T16:03:47;20.40;83.00
1415;DHT22;702;49.466;11.086;2022-10-16T16:06:14;20.30;83.30
1415;DHT22;702;49.466;11.086;2022-10-16T16:08:43;20.20;83.40
1415;DHT22;702;49.466;11.086;2022-10-16T16:11:12;20.10;83.40
1415;DHT22;702;49.466;11.086;2022-10-16T16:13:41;20.00;83.50
1415;DHT22;702;49.466;11.086;2022-10-16T16:16:09;19.90;83.70
1415;DHT22;702;49.466;11.086;2022-10-16T16:18:38;19.90;84.00
1415;DHT22;702;49.466;11.086;2022-10-16T16:21:06;19.80;84.00
1415;DHT22;702;49.466;11.086;2022-10-16T16:23:34;19.80;84.20
1415;DHT22;702;49.466;11.086;2022-10-16T16:26:07;19.70;84.50
1415;DHT22;702;49.466;11.086;2022-10-16T16:28:36;19.70;84.70
1415;DHT22;702;49.466;11.086;2022-10-16T16:31:05;19.60;84.60
1415;DHT22;702;49.466;11.086;2022-10-16T16:33:32;19.60;84.80
1415;DHT22;702;49.466;11.086;2022-10-16T16:36:01;19.60;84.90